sensor_id;sensor_type;location;lat;lon;timestamp;pressure;altitude;pressure_sealevel;temperature;humidity
6565;BME280;3316;44.118;27.258;2024-02-26T00:00:33;100790.66;;;11.30;100.00
6565;BME280;3316;44.118;27.258;2024-02-26T00:03:00;100810.75;;;11.38;100.00
6565;BME280;3316;44.118;27.258;2024-02-26T00:05:26;100800.31;;;11.31;100.00
6565;BME280;3316;44.118;27.258;2024-02-26T00:07:51;100822.16;;;11.40;100.00
6565;BME280;3316;44.118;27.258;2024-02-26T00:10:17;100820.44;;;11.36;100.00
6565;BME280;3316;44.118;27.258;2024-02-26T00:12:42;100805.63;;;11.26;100.00
6565;BME280;3316;44.118;27.258;2024-02-26T00:15:08;100783.84;;;11.09;100.00
6565;BME280;3316;44.118;27.258;2024-02-26T00:17:34;100808.44;;;11.10;100.00
6565;BME280;3316;44.118;27.258;2024-02-26T00:19:59;100782.28;;;10.92;100.00
6565;BME280;3316;44.118;27.258;2024-02-26T00:22:26;100794.53;;;10.94;100.00
6565;BME280;3316;44.118;27.258;2024-02-26T00:24:51;100804.16;;;10.97;100.00
6565;BME280;3316;44.118;27.258;2024-02-26T00:27:17;100805.91;;;10.96;100.00
6565;BME280;3316;44.118;27.258;2024-02-26T00:29:42;100797.25;;;10.84;100.00
6565;BME280;3316;44.118;27.258;2024-02-26T00:32:08;100760.53;;;10.67;100.00
6565;BME280;3316;44.118;27.258;2024-02-26T00:34:33;100778.91;;;10.73;100.00
6565;BME280;3316;44.118;27.258;2024-02-26T00:36:58;100805.09;;;10.91;100.00
6565;BME280;3316;44.118;27.258;2024-02-26T00:39:24;100815.66;;;10.85;100.00
6565;BME280;3316;44.118;27.258;2024-02-26T00:41:49;100805.13;;;10.85;100.00
6565;BME280;3316;44.118;27.258;2024-02-26T00:44:17;100786.00;;;10.66;100.00
6565;BME280;3316;44.118;27.258;2024-02-26T00:46:42;100799.91;;;10.84;100.00
6565;BME280;3316;44.118;27.258;2024-02-26T00:49:07;100803.44;;;10.80;100.00
6565;BME280;3316;44.118;27.258;2024-02-26T00:51:33;100806.00;;;10.87;100.00
6565;BME280;3316;44.118;27.258;2024-02-26T00:53:58;100799.91;;;10.82;100.00
6565;BME280;3316;44.118;27.258;2024-02-26T00:56:24;100811.34;;;10.80;100.00
6565;BME280;3316;44.118;27.258;2024-02-26T00:58:49;100781.53;;;10.73;100.00
6565;BME280;3316;44.118;27.258;2024-02-26T01:01:15;100795.63;;;10.67;100.00
6565;BME280;3316;44.118;27.258;2024-02-26T01:03:40;100756.34;;;10.46;100.00
6565;BME280;3316;44.118;27.258;2024-02-26T01:06:05;100774.66;;;10.60;100.00
6565;BME280;3316;44.118;27.258;2024-02-26T01:08:31;100742.34;;;10.43;100.00
6565;BME280;3316;44.118;27.258;2024-02-26T01:10:57;100779.09;;;10.52;100.00
6565;BME280;3316;44.118;27.258;2024-02-26T01:13:22;100772.13;;;10.46;100.00
6565;BME280;3316;44.118;27.258;2024-02-26T01:15:48;100736.34;;;10.27;100.00
6565;BME280;3316;44.118;27.258;2024-02-26T01:18:13;100754.63;;;10.42;100.00
6565;BME280;3316;44.118;27.258;2024-02-26T01:20:39;100759.88;;;10.42;100.00
6565;BME280;3316;44.118;27.258;2024-02-26T01:23:04;100770.41;;;10.42;100.00
6565;BME280;3316;44.118;27.258;2024-02-26T01:25:31;100733.72;;;10.24;100.00
6565;BME280;3316;44.118;27.258;2024-02-26T01:27:57;100765.19;;;10.39;100.00
6565;BME280;3316;44.118;27.258;2024-02-26T01:30:22;100746.78;;;10.39;100.00
6565;BME280;3316;44.118;27.258;2024-02-26T01:32:48;100752.91;;;10.38;100.00
6565;BME280;3316;44.118;27.258;2024-02-26T01:35:13;100758.16;;;10.41;100.00
6565;BME280;3316;44.118;27.258;2024-02-26T01:37:39;100702.22;;;10.20;100.00
6565;BME280;3316;44.118;27.258;2024-02-26T01:40:05;100747.63;;;10.41;100.00
6565;BME280;3316;44.118;27.258;2024-02-26T01:42:32;100728.44;;;10.29;100.00
6565;BME280;3316;44.118;27.258;2024-02-26T01:44:59;100757.31;;;10.35;100.00
6565;BME280;3316;44.118;27.258;2024-02-26T01:47:25;100739.00;;;10.26;100.00
6565;BME280;3316;44.118;27.258;2024-02-26T01:49:51;100740.69;;;10.33;100.00
6565;BME280;3316;44.118;27.258;2024-02-26T01:52:17;100752.91;;;10.37;100.00
6565;BME280;3316;44.118;27.258;2024-02-26T01:54:45;100756.47;;;10.31;100.00
6565;BME280;3316;44.118;27.258;2024-02-26T01:57:11;100727.69;;;10.12;100.00
6565;BME280;3316;44.118;27.258;2024-02-26T01:59:39;100743.41;;;10.16;100.00
6565;BME280;3316;44.118;27.258;2024-02-26T02:02:07;100761.78;;;10.24;100.00
6565;BME280;3316;44.118;27.258;2024-02-26T02:04:35;100754.78;;;10.21;100.00
6565;BME280;3316;44.118;27.258;2024-02-26T02:07:02;100739.94;;;10.07;100.00
6565;BME280;3316;44.118;27.258;2024-02-26T02:09:28;100760.09;;;10.08;100.00
6565;BME280;3316;44.118;27.258;2024-02-26T02:11:53;100698.09;;;9.73;100.00
6565;BME280;3316;44.118;27.258;2024-02-26T02:14:19;100752.22;;;10.06;100.00
6565;BME280;3316;44.118;27.258;2024-02-26T02:16:46;100720.75;;;9.94;100.00
6565;BME280;3316;44.118;27.258;2024-02-26T02:19:13;100712.81;;;9.99;100.00
6565;BME280;3316;44.118;27.258;2024-02-26T02:21:38;100734.69;;;10.11;100.00
6565;BME280;3316;44.118;27.258;2024-02-26T02:24:04;100663.97;;;9.67;100.00
6565;BME280;3316;44.118;27.258;2024-02-26T02:26:29;100742.47;;;10.25;100.00
6565;BME280;3316;44.118;27.258;2024-02-26T02:28:55;100749.47;;;10.29;100.00
6565;BME280;3316;44.118;27.258;2024-02-26T02:31:20;100743.28;;;10.34;100.00
6565;BME280;3316;44.118;27.258;2024-02-26T02:33:46;100747.63;;;10.38;100.00
6565;BME280;3316;44.118;27.258;2024-02-26T02:36:11;100748.47;;;10.42;100.00
6565;BME280;3316;44.118;27.258;2024-02-26T02:38:37;100728.44;;;10.27;100.00
6565;BME280;3316;44.118;27.258;2024-02-26T02:41:04;100745.97;;;10.27;100.00
6565;BME280;3316;44.118;27.258;2024-02-26T02:43:29;100752.91;;;10.38;100.00
6565;BME280;3316;44.118;27.258;2024-02-26T02:45:54;100732.81;;;10.28;100.00
6565;BME280;3316;44.118;27.258;2024-02-26T02:48:20;100756.38;;;10.40;100.00
6565;BME280;3316;44.118;27.258;2024-02-26T02:50:45;100756.38;;;10.40;100.00
6565;BME280;3316;44.118;27.258;2024-02-26T02:53:11;100754.63;;;10.42;100.00
6565;BME280;3316;44.118;27.258;2024-02-26T02:55:37;100760.78;;;10.38;100.00
6565;BME280;3316;44.118;27.258;2024-02-26T02:58:03;100670.81;;;9.91;100.00
6565;BME280;3316;44.118;27.258;2024-02-26T03:00:28;100771.28;;;10.43;100.00
6565;BME280;3316;44.118;27.258;2024-02-26T03:02:54;100786.25;;;10.32;100.00
6565;BME280;3316;44.118;27.258;2024-02-26T03:05:19;100776.66;;;10.25;100.00
6565;BME280;3316;44.118;27.258;2024-02-26T03:07:44;100785.47;;;10.21;100.00
6565;BME280;3316;44.118;27.258;2024-02-26T03:10:10;100790.78;;;10.13;100.00
6565;BME280;3316;44.118;27.258;2024-02-26T03:12:35;100802.16;;;10.11;100.00
6565;BME280;3316;44.118;27.258;2024-02-26T03:15:01;100778.56;;;9.97;100.00
6565;BME280;3316;44.118;27.258;2024-02-26T03:17:30;100784.72;;;9.96;100.00
6565;BME280;3316;44.118;27.258;2024-02-26T03:19:56;100798.69;;;10.01;100.00
6565;BME280;3316;44.118;27.258;2024-02-26T03:22:21;100803.97;;;9.95;100.00
6565;BME280;3316;44.118;27.258;2024-02-26T03:24:47;100807.50;;;9.91;100.00
6565;BME280;3316;44.118;27.258;2024-02-26T03:27:13;100800.53;;;9.88;100.00
6565;BME280;3316;44.118;27.258;2024-02-26T03:29:39;100776.94;;;9.72;100.00
6565;BME280;3316;44.118;27.258;2024-02-26T03:32:05;100797.94;;;9.81;100.00
6565;BME280;3316;44.118;27.258;2024-02-26T03:34:32;100795.34;;;9.75;100.00
6565;BME280;3316;44.118;27.258;2024-02-26T03:36:59;100819.00;;;9.70;100.00
6565;BME280;3316;44.118;27.258;2024-02-26T03:39:25;100809.38;;;9.60;100.00
6565;BME280;3316;44.118;27.258;2024-02-26T03:41:50;100824.25;;;9.66;100.00
6565;BME280;3316;44.118;27.258;2024-02-26T03:44:16;100812.91;;;9.65;100.00
6565;BME280;3316;44.118;27.258;2024-02-26T03:46:41;100819.88;;;9.62;100.00
6565;BME280;3316;44.118;27.258;2024-02-26T03:49:10;100820.75;;;9.68;100.00
6565;BME280;3316;44.118;27.258;2024-02-26T03:51:35;100816.38;;;9.66;100.00
6565;BME280;3316;44.118;27.258;2024-02-26T03:54:01;100820.78;;;9.55;100.00
6565;BME280;3316;44.118;27.258;2024-02-26T03:56:26;100819.03;;;9.63;100.00
6565;BME280;3316;44.118;27.258;2024-02-26T03:58:52;100812.03;;;9.57;100.00
6565;BME280;3316;44.118;27.258;2024-02-26T04:01:18;100825.13;;;9.62;100.00
6565;BME280;3316;44.118;27.258;2024-02-26T04:03:43;100814.69;;;9.47;100.00
6565;BME280;3316;44.118;27.258;2024-02-26T04:06:09;100791.06;;;9.41;100.00
6565;BME280;3316;44.118;27.258;2024-02-26T04:08:36;100810.31;;;9.49;100.00
6565;BME280;3316;44.118;27.258;2024-02-26T04:11:01;100805.97;;;9.42;100.00
6565;BME280;3316;44.118;27.258;2024-02-26T04:13:32;100807.72;;;9.40;100.00
6565;BME280;3316;44.118;27.258;2024-02-26T04:15:57;100817.38;;;9.32;100.00
6565;BME280;3316;44.118;27.258;2024-02-26T04:18:23;100791.16;;;9.12;100.00
6565;BME280;3316;44.118;27.258;2024-02-26T04:20:48;100812.13;;;9.20;100.00
6565;BME280;3316;44.118;27.258;2024-02-26T04:23:14;100813.91;;;9.12;100.00
6565;BME280;3316;44.118;27.258;2024-02-26T04:25:39;100809.53;;;9.12;100.00
6565;BME280;3316;44.118;27.258;2024-02-26T04:28:05;100773.69;;;8.94;100.00
6565;BME280;3316;44.118;27.258;2024-02-26T04:30:30;100769.31;;;8.87;100.00
6565;BME280;3316;44.118;27.258;2024-02-26T04:32:55;100806.88;;;9.09;100.00
6565;BME280;3316;44.118;27.258;2024-02-26T04:35:21;100806.91;;;9.06;100.00
6565;BME280;3316;44.118;27.258;2024-02-26T04:37:46;100810.44;;;8.99;100.00
6565;BME280;3316;44.118;27.258;2024-02-26T04:40:12;100799.91;;;8.85;100.00
6565;BME280;3316;44.118;27.258;2024-02-26T04:42:37;100804.31;;;8.97;100.00
6565;BME280;3316;44.118;27.258;2024-02-26T04:45:03;100807.78;;;9.02;100.00
6565;BME280;3316;44.118;27.258;2024-02-26T04:47:29;100773.69;;;8.84;100.00
6565;BME280;3316;44.118;27.258;2024-02-26T04:49:55;100736.13;;;8.64;100.00
6565;BME280;3316;44.118;27.258;2024-02-26T04:52:21;100788.56;;;8.97;100.00
6565;BME280;3316;44.118;27.258;2024-02-26T04:54:47;100813.91;;;9.03;100.00
6565;BME280;3316;44.118;27.258;2024-02-26T04:57:12;100789.44;;;8.88;100.00
6565;BME280;3316;44.118;27.258;2024-02-26T04:59:37;100822.63;;;9.09;100.00
6565;BME280;3316;44.118;27.258;2024-02-26T05:02:03;100758.84;;;8.71;100.00
6565;BME280;3316;44.118;27.258;2024-02-26T05:04:29;100827.03;;;9.04;100.00
6565;BME280;3316;44.118;27.258;2024-02-26T05:06:54;100822.63;;;9.03;100.00
6565;BME280;3316;44.118;27.258;2024-02-26T05:09:19;100823.50;;;9.11;100.00
6565;BME280;3316;44.118;27.258;2024-02-26T05:11:45;100782.44;;;8.92;100.00
6565;BME280;3316;44.118;27.258;2024-02-26T05:14:11;100820.00;;;9.15;100.00
6565;BME280;3316;44.118;27.258;2024-02-26T05:16:36;100818.25;;;9.16;100.00
6565;BME280;3316;44.118;27.258;2024-02-26T05:19:01;100791.16;;;9.06;100.00
6565;BME280;3316;44.118;27.258;2024-02-26T05:21:28;100794.66;;;9.14;100.00
6565;BME280;3316;44.118;27.258;2024-02-26T05:23:53;100819.13;;;9.28;100.00
6565;BME280;3316;44.118;27.258;2024-02-26T05:26:20;100832.19;;;9.40;100.00
6565;BME280;3316;44.118;27.258;2024-02-26T05:28:46;100794.63;;;9.26;100.00
6565;BME280;3316;44.118;27.258;2024-02-26T05:31:15;100813.81;;;9.40;100.00
6565;BME280;3316;44.118;27.258;2024-02-26T05:33:41;100795.50;;;9.25;100.00
6565;BME280;3316;44.118;27.258;2024-02-26T05:36:06;100806.84;;;9.38;100.00
6565;BME280;3316;44.118;27.258;2024-02-26T05:38:32;100836.56;;;9.50;100.00
6565;BME280;3316;44.118;27.258;2024-02-26T05:40:58;100843.56;;;9.48;100.00
6565;BME280;3316;44.118;27.258;2024-02-26T05:43:26;100853.19;;;9.52;100.00
6565;BME280;3316;44.118;27.258;2024-02-26T05:45:52;100850.53;;;9.69;100.00
6565;BME280;3316;44.118;27.258;2024-02-26T05:48:18;100848.75;;;9.72;100.00
6565;BME280;3316;44.118;27.258;2024-02-26T05:50:45;100836.50;;;9.70;100.00
6565;BME280;3316;44.118;27.258;2024-02-26T05:53:10;100820.72;;;9.74;100.00
6565;BME280;3316;44.118;27.258;2024-02-26T05:55:36;100820.75;;;9.73;100.00
6565;BME280;3316;44.118;27.258;2024-02-26T05:58:02;100835.63;;;9.77;100.00
6565;BME280;3316;44.118;27.258;2024-02-26T06:00:28;100848.69;;;9.89;100.00
6565;BME280;3316;44.118;27.258;2024-02-26T06:02:53;100853.97;;;9.86;100.00
6565;BME280;3316;44.118;27.258;2024-02-26T06:05:19;100819.84;;;9.78;100.00
6565;BME280;3316;44.118;27.258;2024-02-26T06:07:44;100860.81;;;10.26;100.00
6565;BME280;3316;44.118;27.258;2024-02-26T06:10:10;100860.75;;;10.37;100.00
6565;BME280;3316;44.118;27.258;2024-02-26T06:12:36;100860.81;;;10.25;100.00
6565;BME280;3316;44.118;27.258;2024-02-26T06:15:01;100861.59;;;10.45;100.00
6565;BME280;3316;44.118;27.258;2024-02-26T06:17:27;100849.28;;;10.48;100.00
6565;BME280;3316;44.118;27.258;2024-02-26T06:19:53;100862.91;;;11.00;100.00
6565;BME280;3316;44.118;27.258;2024-02-26T06:22:19;100866.25;;;11.20;100.00
6565;BME280;3316;44.118;27.258;2024-02-26T06:24:44;100865.06;;;11.51;100.00
6565;BME280;3316;44.118;27.258;2024-02-26T06:27:10;100874.75;;;11.49;100.00
6565;BME280;3316;44.118;27.258;2024-02-26T06:29:35;100859.94;;;11.41;100.00
6565;BME280;3316;44.118;27.258;2024-02-26T06:32:01;100869.50;;;11.48;100.00
6565;BME280;3316;44.118;27.258;2024-02-26T06:34:26;100854.63;;;11.42;100.00
6565;BME280;3316;44.118;27.258;2024-02-26T06:36:51;100850.88;;;11.68;100.00
6565;BME280;3316;44.118;27.258;2024-02-26T06:39:17;100881.00;;;12.20;100.00
6565;BME280;3316;44.118;27.258;2024-02-26T06:41:43;100888.66;;;12.38;100.00
6565;BME280;3316;44.118;27.258;2024-02-26T06:44:09;100858.28;;;12.69;100.00
6565;BME280;3316;44.118;27.258;2024-02-26T06:46:34;100858.91;;;13.38;100.00
6565;BME280;3316;44.118;27.258;2024-02-26T06:49:00;100889.03;;;13.77;100.00
6565;BME280;3316;44.118;27.258;2024-02-26T06:51:25;100901.75;;;14.45;100.00
6565;BME280;3316;44.118;27.258;2024-02-26T06:53:50;100842.50;;;14.51;100.00
6565;BME280;3316;44.118;27.258;2024-02-26T06:56:16;100897.47;;;15.14;100.00
6565;BME280;3316;44.118;27.258;2024-02-26T06:58:41;100872.69;;;15.83;92.67
6565;BME280;3316;44.118;27.258;2024-02-26T07:01:07;100899.75;;;16.26;88.46
6565;BME280;3316;44.118;27.258;2024-02-26T07:03:34;100876.22;;;15.51;93.21
6565;BME280;3316;44.118;27.258;2024-02-26T07:05:59;100891.59;;;15.71;91.64
6565;BME280;3316;44.118;27.258;2024-02-26T07:08:25;100888.28;;;15.28;92.81
6565;BME280;3316;44.118;27.258;2024-02-26T07:10:50;100898.47;;;15.46;95.71
6565;BME280;3316;44.118;27.258;2024-02-26T07:13:15;100904.44;;;15.86;91.33
6565;BME280;3316;44.118;27.258;2024-02-26T07:15:41;100918.38;;;16.55;85.34
6565;BME280;3316;44.118;27.258;2024-02-26T07:18:06;100920.09;;;16.56;83.36
6565;BME280;3316;44.118;27.258;2024-02-26T07:20:32;100905.88;;;17.14;77.58
6565;BME280;3316;44.118;27.258;2024-02-26T07:22:58;100888.88;;;17.44;76.34
6565;BME280;3316;44.118;27.258;2024-02-26T07:25:23;100925.19;;;17.71;72.14
6565;BME280;3316;44.118;27.258;2024-02-26T07:27:52;100925.16;;;17.73;71.44
6565;BME280;3316;44.118;27.258;2024-02-26T07:30:18;100930.69;;;17.41;73.64
6565;BME280;3316;44.118;27.258;2024-02-26T07:32:43;100931.38;;;17.46;73.72
6565;BME280;3316;44.118;27.258;2024-02-26T07:35:09;100929.53;;;17.49;72.34
6565;BME280;3316;44.118;27.258;2024-02-26T07:37:35;100931.91;;;17.31;73.14
6565;BME280;3316;44.118;27.258;2024-02-26T07:40:00;100921.16;;;16.51;78.57
6565;BME280;3316;44.118;27.258;2024-02-26T07:42:26;100930.41;;;16.07;84.22
6565;BME280;3316;44.118;27.258;2024-02-26T07:44:52;100926.94;;;16.03;85.31
6565;BME280;3316;44.118;27.258;2024-02-26T07:47:18;100935.56;;;16.12;86.68
6565;BME280;3316;44.118;27.258;2024-02-26T07:49:44;100926.19;;;16.29;85.22
6565;BME280;3316;44.118;27.258;2024-02-26T07:52:10;100923.88;;;16.78;83.46
6565;BME280;3316;44.118;27.258;2024-02-26T07:54:35;100926.00;;;16.67;84.32
6565;BME280;3316;44.118;27.258;2024-02-26T07:57:01;100887.66;;;16.74;80.91
6565;BME280;3316;44.118;27.258;2024-02-26T07:59:28;100934.97;;;16.63;82.47
6565;BME280;3316;44.118;27.258;2024-02-26T08:01:54;100912.28;;;17.07;79.46
6565;BME280;3316;44.118;27.258;2024-02-26T08:04:19;100929.97;;;17.87;73.66
6565;BME280;3316;44.118;27.258;2024-02-26T08:06:45;100888.19;;;17.39;74.07
6565;BME280;3316;44.118;27.258;2024-02-26T08:09:10;100921.28;;;18.06;70.93
6565;BME280;3316;44.118;27.258;2024-02-26T08:11:38;100901.13;;;18.70;65.76
6565;BME280;3316;44.118;27.258;2024-02-26T08:14:03;100934.09;;;18.67;65.49
6565;BME280;3316;44.118;27.258;2024-02-26T08:16:28;100929.72;;;18.67;65.96
6565;BME280;3316;44.118;27.258;2024-02-26T08:18:55;100911.56;;;18.98;63.11
6565;BME280;3316;44.118;27.258;2024-02-26T08:21:20;100875.50;;;18.20;65.54
6565;BME280;3316;44.118;27.258;2024-02-26T08:23:45;100920.22;;;18.35;65.36
6565;BME280;3316;44.118;27.258;2024-02-26T08:26:11;100930.28;;;18.96;63.93
6565;BME280;3316;44.118;27.258;2024-02-26T08:28:37;100920.47;;;19.18;62.79
6565;BME280;3316;44.118;27.258;2024-02-26T08:31:03;100925.84;;;18.74;61.97
6565;BME280;3316;44.118;27.258;2024-02-26T08:33:29;100904.06;;;18.86;62.12
6565;BME280;3316;44.118;27.258;2024-02-26T08:35:54;100853.66;;;19.21;59.87
6565;BME280;3316;44.118;27.258;2024-02-26T08:38:19;100881.91;;;20.27;56.07
6565;BME280;3316;44.118;27.258;2024-02-26T08:40:45;100909.84;;;20.20;56.44
6565;BME280;3316;44.118;27.258;2024-02-26T08:43:10;100927.06;;;20.33;56.48
6565;BME280;3316;44.118;27.258;2024-02-26T08:45:36;100924.81;;;20.24;57.76
6565;BME280;3316;44.118;27.258;2024-02-26T08:48:01;100919.13;;;20.88;55.22
6565;BME280;3316;44.118;27.258;2024-02-26T08:50:27;100911.00;;;20.89;55.59
6565;BME280;3316;44.118;27.258;2024-02-26T08:52:52;100894.34;;;20.66;56.42
6565;BME280;3316;44.118;27.258;2024-02-26T08:55:18;100920.38;;;21.52;54.90
6565;BME280;3316;44.118;27.258;2024-02-26T08:57:44;100917.72;;;21.69;52.97
6565;BME280;3316;44.118;27.258;2024-02-26T09:00:10;100928.44;;;22.03;52.13
6565;BME280;3316;44.118;27.258;2024-02-26T09:02:36;100922.84;;;21.40;52.98
6565;BME280;3316;44.118;27.258;2024-02-26T09:05:05;100930.25;;;21.16;52.95
6565;BME280;3316;44.118;27.258;2024-02-26T09:07:31;100927.66;;;22.01;49.07
6565;BME280;3316;44.118;27.258;2024-02-26T09:09:56;100922.84;;;21.91;50.85
6565;BME280;3316;44.118;27.258;2024-02-26T09:12:22;100922.28;;;21.14;53.59
6565;BME280;3316;44.118;27.258;2024-02-26T09:14:48;100926.91;;;21.82;52.84
6565;BME280;3316;44.118;27.258;2024-02-26T09:17:13;100932.66;;;21.39;52.72
6565;BME280;3316;44.118;27.258;2024-02-26T09:19:38;100899.53;;;21.06;53.88
6565;BME280;3316;44.118;27.258;2024-02-26T09:22:04;100907.50;;;21.24;53.79
6565;BME280;3316;44.118;27.258;2024-02-26T09:24:29;100934.69;;;21.34;54.14
6565;BME280;3316;44.118;27.258;2024-02-26T09:26:55;100925.72;;;21.88;52.97
6565;BME280;3316;44.118;27.258;2024-02-26T09:29:21;100901.25;;;21.07;52.39
6565;BME280;3316;44.118;27.258;2024-02-26T09:31:46;100923.25;;;21.83;51.99
6565;BME280;3316;44.118;27.258;2024-02-26T09:34:14;100865.81;;;21.89;50.96
6565;BME280;3316;44.118;27.258;2024-02-26T09:36:40;100922.13;;;21.70;51.32
6565;BME280;3316;44.118;27.258;2024-02-26T09:39:05;100914.81;;;21.04;52.87
6565;BME280;3316;44.118;27.258;2024-02-26T09:41:33;100886.03;;;20.72;53.77
6565;BME280;3316;44.118;27.258;2024-02-26T09:44:02;100912.13;;;21.04;53.17
6565;BME280;3316;44.118;27.258;2024-02-26T09:46:29;100914.06;;;21.00;53.21
6565;BME280;3316;44.118;27.258;2024-02-26T09:48:56;100910.22;;;20.87;52.55
6565;BME280;3316;44.118;27.258;2024-02-26T09:51:23;100907.78;;;20.83;53.88
6565;BME280;3316;44.118;27.258;2024-02-26T09:53:52;100909.66;;;21.18;52.69
6565;BME280;3316;44.118;27.258;2024-02-26T09:56:19;100889.81;;;21.22;52.06
6565;BME280;3316;44.118;27.258;2024-02-26T09:58:45;100914.44;;;21.81;50.86
6565;BME280;3316;44.118;27.258;2024-02-26T10:01:17;100881.16;;;20.98;50.67
6565;BME280;3316;44.118;27.258;2024-02-26T10:03:43;100894.97;;;21.08;52.12
6565;BME280;3316;44.118;27.258;2024-02-26T10:06:13;100902.22;;;21.06;52.23
6565;BME280;3316;44.118;27.258;2024-02-26T10:08:39;100856.25;;;20.61;51.53
6565;BME280;3316;44.118;27.258;2024-02-26T10:11:07;100902.97;;;20.54;51.32
6565;BME280;3316;44.118;27.258;2024-02-26T10:13:34;100884.78;;;20.23;52.09
6565;BME280;3316;44.118;27.258;2024-02-26T10:16:01;100894.84;;;20.36;51.88
6565;BME280;3316;44.118;27.258;2024-02-26T10:21:13;100879.50;;;20.21;51.82
6565;BME280;3316;44.118;27.258;2024-02-26T10:23:39;100876.19;;;19.96;52.75
6565;BME280;3316;44.118;27.258;2024-02-26T10:26:04;100858.72;;;20.28;52.17
6565;BME280;3316;44.118;27.258;2024-02-26T10:28:30;100874.69;;;20.67;50.92
6565;BME280;3316;44.118;27.258;2024-02-26T10:30:56;100878.38;;;20.46;51.28
6565;BME280;3316;44.118;27.258;2024-02-26T10:33:22;100875.84;;;20.42;52.28
6565;BME280;3316;44.118;27.258;2024-02-26T10:35:47;100870.66;;;20.39;51.82
6565;BME280;3316;44.118;27.258;2024-02-26T10:38:15;100866.03;;;20.24;52.41
6565;BME280;3316;44.118;27.258;2024-02-26T10:40:45;100853.50;;;20.62;52.52
6565;BME280;3316;44.118;27.258;2024-02-26T10:43:12;100861.84;;;20.92;51.29
6565;BME280;3316;44.118;27.258;2024-02-26T10:45:40;100862.56;;;21.14;51.22
6565;BME280;3316;44.118;27.258;2024-02-26T10:48:12;100864.59;;;21.09;50.99
6565;BME280;3316;44.118;27.258;2024-02-26T10:50:38;100860.56;;;21.00;50.42
6565;BME280;3316;44.118;27.258;2024-02-26T10:53:20;100863.31;;;20.80;50.65
6565;BME280;3316;44.118;27.258;2024-02-26T10:55:51;100862.91;;;20.52;51.38
6565;BME280;3316;44.118;27.258;2024-02-26T10:58:18;100848.47;;;20.37;51.74
6565;BME280;3316;44.118;27.258;2024-02-26T11:00:45;100818.78;;;20.25;51.66
6565;BME280;3316;44.118;27.258;2024-02-26T11:03:13;100852.09;;;20.55;51.32
6565;BME280;3316;44.118;27.258;2024-02-26T11:05:43;100830.03;;;20.50;50.77
6565;BME280;3316;44.118;27.258;2024-02-26T11:08:11;100851.38;;;21.06;50.02
6565;BME280;3316;44.118;27.258;2024-02-26T11:10:36;100855.16;;;21.02;49.20
6565;BME280;3316;44.118;27.258;2024-02-26T11:13:04;100823.09;;;21.00;48.86
6565;BME280;3316;44.118;27.258;2024-02-26T11:15:30;100833.81;;;21.00;49.01
6565;BME280;3316;44.118;27.258;2024-02-26T11:17:58;100829.28;;;21.02;47.51
6565;BME280;3316;44.118;27.258;2024-02-26T11:20:25;100842.22;;;20.74;47.46
6565;BME280;3316;44.118;27.258;2024-02-26T11:22:53;100824.19;;;20.61;47.13
6565;BME280;3316;44.118;27.258;2024-02-26T11:25:18;100809.91;;;20.43;46.96
6565;BME280;3316;44.118;27.258;2024-02-26T11:27:58;100843.59;;;20.64;47.42
6565;BME280;3316;44.118;27.258;2024-02-26T11:30:30;100834.50;;;20.68;47.26
6565;BME280;3316;44.118;27.258;2024-02-26T11:32:56;100835.91;;;20.94;46.49
6565;BME280;3316;44.118;27.258;2024-02-26T11:35:23;100830.44;;;20.78;45.83
6565;BME280;3316;44.118;27.258;2024-02-26T11:37:56;100829.97;;;20.52;46.13
6565;BME280;3316;44.118;27.258;2024-02-26T11:40:26;100836.31;;;20.68;46.14
6565;BME280;3316;44.118;27.258;2024-02-26T11:42:52;100827.94;;;20.19;47.59
6565;BME280;3316;44.118;27.258;2024-02-26T11:48:22;100820.91;;;20.17;49.40
6565;BME280;3316;44.118;27.258;2024-02-26T11:50:53;100753.31;;;19.96;49.27
6565;BME280;3316;44.118;27.258;2024-02-26T11:56:20;100823.72;;;20.14;49.39
6565;BME280;3316;44.118;27.258;2024-02-26T11:58:46;100806.09;;;19.91;50.13
6565;BME280;3316;44.118;27.258;2024-02-26T12:01:50;100824.50;;;19.97;50.24
6565;BME280;3316;44.118;27.258;2024-02-26T12:04:25;100813.31;;;19.89;51.03
6565;BME280;3316;44.118;27.258;2024-02-26T12:07:01;100804.66;;;19.64;51.54
6565;BME280;3316;44.118;27.258;2024-02-26T12:09:38;100813.94;;;19.76;51.40
6565;BME280;3316;44.118;27.258;2024-02-26T12:12:08;100819.63;;;20.07;50.94
6565;BME280;3316;44.118;27.258;2024-02-26T12:14:56;100832.97;;;20.07;51.09
6565;BME280;3316;44.118;27.258;2024-02-26T12:17:22;100798.09;;;20.28;50.71
6565;BME280;3316;44.118;27.258;2024-02-26T12:19:49;100816.69;;;20.31;51.12
6565;BME280;3316;44.118;27.258;2024-02-26T12:22:16;100813.50;;;20.23;51.65
6565;BME280;3316;44.118;27.258;2024-02-26T12:24:42;100826.50;;;20.31;52.13
6565;BME280;3316;44.118;27.258;2024-02-26T12:27:08;100825.06;;;20.24;51.67
6565;BME280;3316;44.118;27.258;2024-02-26T12:29:34;100804.84;;;20.18;51.62
6565;BME280;3316;44.118;27.258;2024-02-26T12:32:01;100814.31;;;20.05;51.96
6565;BME280;3316;44.118;27.258;2024-02-26T12:34:27;100811.03;;;20.19;51.67
6565;BME280;3316;44.118;27.258;2024-02-26T12:36:54;100824.00;;;20.08;52.12
6565;BME280;3316;44.118;27.258;2024-02-26T12:39:19;100803.72;;;19.85;52.65
6565;BME280;3316;44.118;27.258;2024-02-26T12:41:46;100820.63;;;19.45;54.25
6565;BME280;3316;44.118;27.258;2024-02-26T12:44:16;100782.38;;;19.25;54.33
6565;BME280;3316;44.118;27.258;2024-02-26T12:46:41;100807.69;;;19.36;54.84
6565;BME280;3316;44.118;27.258;2024-02-26T12:49:08;100821.78;;;19.60;54.36
6565;BME280;3316;44.118;27.258;2024-02-26T12:51:34;100810.66;;;19.69;52.91
6565;BME280;3316;44.118;27.258;2024-02-26T12:54:01;100818.34;;;19.57;53.99
6565;BME280;3316;44.118;27.258;2024-02-26T12:56:27;100820.28;;;19.53;53.46
6565;BME280;3316;44.118;27.258;2024-02-26T12:58:53;100789.31;;;19.29;53.71
6565;BME280;3316;44.118;27.258;2024-02-26T13:01:23;100761.50;;;19.14;53.20